createdAt,value
2018-10-09T02:07:06.917Z,41.60
2018-10-09T02:09:35.276Z,38.17
2018-10-09T02:12:03.662Z,39.23
2018-10-09T02:14:32.160Z,39.70
2018-10-09T02:17:00.552Z,41.10
2018-10-09T02:19:28.960Z,52.63
2018-10-09T02:21:57.347Z,42.33
2018-10-09T02:24:25.917Z,42.87
2018-10-09T02:26:54.618Z,46.47
2018-10-09T02:29:22.973Z,39.80
2018-10-09T02:31:51.407Z,42.03
2018-10-09T02:34:19.849Z,43.10
2018-10-09T02:36:48.245Z,42.30
2018-10-09T02:39:16.735Z,43.60
2018-10-09T02:41:45.121Z,46.20
2018-10-09T02:44:13.591Z,48.37
2018-10-09T02:46:41.994Z,44.70
2018-10-09T02:49:10.451Z,44.13
2018-10-09T02:51:38.854Z,46.70
2018-10-09T02:54:07.833Z,44.67
2018-10-09T02:56:36.246Z,43.43
2018-10-09T02:59:04.693Z,48.83
2018-10-09T03:01:33.175Z,47.03
2018-10-09T03:04:01.551Z,49.27
2018-10-09T03:06:30.018Z,45.10
2018-10-09T03:08:58.507Z,48.13
2018-10-09T03:11:26.931Z,46.83
2018-10-09T03:13:55.315Z,48.90
2018-10-09T03:16:23.718Z,43.90
2018-10-09T03:18:52.181Z,48.27
2018-10-09T03:21:20.567Z,47.43
2018-10-09T03:23:49.085Z,47.63
2018-10-09T03:26:17.594Z,45.13
2018-10-09T03:28:46.162Z,47.47
2018-10-09T03:31:14.546Z,44.33
2018-10-09T03:33:43.077Z,47.37
2018-10-09T03:36:11.450Z,49.10
2018-10-09T03:38:39.962Z,51.33
2018-10-09T03:41:09.443Z,50.70
2018-10-09T03:43:37.813Z,49.67
2018-10-09T03:46:06.266Z,46.60
2018-10-09T03:48:35.065Z,46.50
2018-10-09T03:51:03.440Z,46.43
2018-10-09T03:55:59.559Z,49.27
2018-10-09T03:58:28.043Z,51.30
2018-10-09T04:00:56.429Z,50.27
2018-10-09T04:03:24.826Z,50.40
2018-10-09T04:05:53.313Z,49.67
2018-10-09T04:08:21.774Z,48.70
2018-10-09T04:10:50.149Z,50.28
2018-10-09T04:13:18.527Z,50.08
2018-10-09T04:15:46.940Z,51.93
2018-10-09T04:18:15.317Z,49.98
2018-10-09T04:20:43.810Z,47.48
2018-10-09T04:23:12.182Z,45.08
2018-10-09T04:25:40.589Z,44.10
2018-10-09T04:28:09.058Z,43.70
2018-10-09T04:30:37.404Z,44.88
2018-10-09T04:33:05.868Z,45.08
2018-10-09T04:35:34.430Z,42.65
2018-10-09T04:38:02.945Z,41.35
2018-10-09T04:40:31.456Z,40.98
2018-10-09T04:42:59.852Z,40.77
2018-10-09T04:45:29.177Z,39.80
2018-10-09T04:47:59.070Z,39.90
2018-10-09T04:50:27.708Z,43.13
2018-10-09T04:52:56.231Z,41.10
2018-10-09T04:55:24.677Z,41.25
2018-10-09T04:57:53.097Z,41.02
2018-10-09T05:00:21.489Z,41.13
2018-10-09T05:02:49.994Z,41.00
2018-10-09T05:05:18.533Z,41.80
2018-10-09T05:07:46.973Z,42.10
2018-10-09T05:10:15.410Z,41.53
2018-10-09T05:12:43.916Z,42.15
2018-10-09T05:15:12.438Z,41.30
2018-10-09T05:17:40.938Z,42.33
2018-10-09T05:20:10.515Z,40.80
2018-10-09T05:22:39.224Z,41.77
2018-10-09T05:25:07.754Z,42.80
2018-10-09T05:27:36.188Z,41.10
2018-10-09T05:30:04.700Z,42.10
2018-10-09T05:32:33.220Z,40.60
2018-10-09T05:35:01.725Z,40.20
2018-10-09T05:37:30.148Z,41.00
2018-10-09T05:39:58.564Z,40.52
2018-10-09T05:42:27.038Z,40.12
2018-10-09T05:44:55.544Z,41.03
2018-10-09T05:47:24.014Z,42.33
2018-10-09T05:49:52.456Z,42.83
2018-10-09T05:52:20.987Z,42.17
2018-10-09T05:54:49.420Z,39.55
2018-10-09T05:57:17.824Z,40.33
2018-10-09T05:59:46.274Z,42.83
2018-10-09T06:02:14.826Z,42.35
2018-10-09T06:04:43.342Z,43.45
2018-10-09T06:07:11.774Z,43.38
2018-10-09T06:09:40.157Z,44.58
2018-10-09T06:12:08.537Z,44.77
2018-10-09T06:14:37.071Z,47.08
2018-10-09T06:17:05.642Z,49.27
2018-10-09T06:19:34.021Z,49.00
2018-10-09T06:22:02.507Z,50.90
2018-10-09T06:24:31.076Z,49.10
2018-10-09T06:26:59.639Z,54.45
2018-10-09T06:29:28.016Z,58.08
2018-10-09T06:31:56.425Z,57.23
2018-10-09T06:34:24.829Z,60.45
2018-10-09T06:36:53.289Z,56.15
2018-10-09T06:39:21.705Z,58.45
2018-10-09T06:41:50.139Z,59.20
2018-10-09T06:44:18.683Z,58.65
2018-10-09T06:46:47.056Z,58.90
2018-10-09T06:49:15.499Z,64.82
2018-10-09T06:51:43.974Z,61.70
2018-10-09T06:54:12.539Z,59.80
2018-10-09T06:56:40.947Z,58.58
2018-10-09T06:59:09.404Z,61.87
2018-10-09T07:01:37.885Z,58.25
2018-10-09T07:04:06.390Z,58.80
2018-10-09T07:06:34.791Z,59.73
2018-10-09T07:09:03.417Z,56.98
2018-10-09T07:11:31.868Z,59.98
2018-10-09T07:14:00.296Z,55.67
2018-10-09T07:16:28.786Z,55.17
2018-10-09T07:18:57.137Z,53.23
2018-10-09T07:21:25.642Z,54.42
2018-10-09T07:23:54.002Z,56.55
2018-10-09T07:26:22.645Z,51.98
2018-10-09T07:28:51.010Z,53.50
2018-10-09T07:31:19.485Z,53.33
2018-10-09T07:33:47.902Z,53.68
2018-10-09T07:36:16.411Z,53.60
2018-10-09T07:38:44.811Z,53.52
2018-10-09T07:41:13.246Z,53.60
2018-10-09T07:43:41.777Z,55.63
2018-10-09T07:46:10.238Z,53.20
2018-10-09T07:48:38.770Z,59.77
2018-10-09T07:51:07.422Z,60.92
2018-10-09T07:53:35.850Z,60.23
2018-10-09T07:56:04.241Z,58.35
2018-10-09T07:58:32.784Z,59.05
2018-10-09T08:01:01.159Z,57.78
2018-10-09T08:03:29.642Z,55.33
2018-10-09T08:05:58.039Z,54.63
2018-10-09T08:08:26.460Z,52.58
2018-10-09T08:10:54.909Z,42.67
2018-10-09T08:13:23.306Z,44.10
2018-10-09T08:15:51.739Z,42.27
2018-10-09T08:18:20.115Z,45.70
2018-10-09T08:20:48.566Z,49.90
2018-10-09T08:23:17.172Z,41.27
2018-10-09T08:25:45.622Z,44.83
2018-10-09T08:28:13.992Z,45.67
2018-10-09T08:30:42.344Z,45.83
2018-10-09T08:33:10.714Z,45.60
2018-10-09T08:35:39.255Z,49.70
2018-10-09T08:38:07.704Z,43.73
2018-10-09T08:40:36.201Z,48.77
2018-10-09T08:43:04.684Z,48.03
2018-10-09T08:45:33.157Z,47.33
2018-10-09T08:48:01.595Z,48.60
2018-10-09T08:50:29.995Z,48.47
2018-10-09T08:52:58.356Z,45.13
2018-10-09T08:55:26.856Z,49.90
2018-10-09T08:57:55.420Z,46.00
2018-10-09T09:00:23.905Z,50.80
2018-10-09T09:02:52.343Z,46.00
2018-10-09T09:05:21.014Z,45.23
2018-10-09T09:07:49.409Z,41.17
2018-10-09T09:10:17.937Z,44.60
2018-10-09T09:12:46.323Z,45.57
2018-10-09T09:15:14.773Z,43.10
2018-10-09T09:17:43.281Z,41.50
2018-10-09T09:20:11.770Z,40.93
2018-10-09T09:22:40.397Z,41.57
2018-10-09T09:25:08.828Z,42.93
2018-10-09T09:27:37.213Z,43.13
2018-10-09T09:30:06.623Z,46.77
2018-10-09T09:32:35.045Z,44.77
2018-10-09T09:35:03.695Z,46.40
2018-10-09T09:37:32.212Z,47.20
2018-10-09T09:40:00.651Z,45.80
2018-10-09T09:42:29.039Z,43.10
2018-10-09T09:44:57.521Z,47.60
2018-10-09T09:47:26.075Z,44.60
2018-10-09T09:49:54.463Z,47.27
2018-10-09T09:52:23.160Z,42.93
2018-10-09T09:54:51.583Z,49.40
2018-10-09T09:57:20.110Z,45.73
2018-10-09T09:59:48.589Z,42.83
2018-10-09T10:02:17.059Z,46.75
2018-10-09T10:04:45.655Z,49.30
2018-10-09T10:07:14.253Z,47.40
2018-10-09T10:09:42.651Z,47.90
2018-10-09T10:12:11.271Z,47.45
2018-10-09T10:14:39.712Z,45.28
2018-10-09T10:17:08.200Z,46.83
2018-10-09T10:19:36.644Z,44.98
2018-10-09T10:22:05.131Z,45.17
2018-10-09T10:24:33.794Z,45.23
2018-10-09T10:27:02.235Z,42.75
2018-10-09T10:29:30.817Z,40.05
2018-10-09T10:31:59.215Z,39.13
2018-10-09T10:34:27.602Z,36.67
2018-10-09T10:36:56.159Z,36.77
2018-10-09T10:39:24.535Z,40.30
2018-10-09T10:41:52.928Z,40.33
2018-10-09T10:44:21.381Z,37.23
2018-10-09T10:46:50.024Z,38.57
2018-10-09T10:49:18.407Z,37.88
2018-10-09T10:51:46.774Z,41.30
2018-10-09T10:54:15.159Z,37.28
2018-10-09T10:56:43.578Z,38.53
2018-10-09T10:59:12.070Z,37.42
2018-10-09T11:01:40.644Z,39.13
2018-10-09T11:04:09.049Z,34.92
2018-10-09T11:06:37.462Z,36.20
2018-10-09T11:09:09.009Z,37.78
2018-10-09T11:11:37.710Z,37.60
2018-10-09T11:14:06.299Z,29.07
2018-10-09T11:16:34.834Z,30.23
2018-10-09T11:19:03.298Z,29.00
2018-10-09T11:21:31.839Z,24.30
2018-10-09T11:24:00.383Z,26.80
2018-10-09T11:26:28.842Z,28.27
2018-10-09T11:28:57.243Z,24.80
2018-10-09T11:31:25.669Z,25.67
2018-10-09T11:33:54.094Z,30.40
2018-10-09T11:36:22.514Z,31.00
2018-10-09T11:38:50.954Z,27.07
2018-10-09T11:41:19.369Z,24.63
2018-10-09T11:43:47.774Z,26.57
2018-10-09T11:46:16.206Z,20.53
2018-10-09T11:48:44.618Z,24.50
2018-10-09T11:51:13.092Z,25.23
2018-10-09T11:53:41.939Z,23.40
2018-10-09T11:56:10.414Z,23.47
2018-10-09T11:58:38.834Z,20.93
2018-10-09T12:01:08.769Z,20.87
2018-10-09T12:03:37.183Z,21.03
2018-10-09T12:06:05.698Z,24.07
2018-10-09T12:08:34.136Z,24.23
2018-10-09T12:11:02.663Z,21.73
2018-10-09T12:13:31.335Z,18.80
2018-10-09T12:15:59.918Z,14.20
2018-10-09T12:18:28.318Z,19.20
2018-10-09T12:20:56.798Z,18.03
2018-10-09T12:23:25.374Z,18.10
2018-10-09T12:25:53.811Z,17.37
2018-10-09T12:28:22.344Z,16.90
2018-10-09T12:30:50.745Z,18.83
2018-10-09T12:33:19.221Z,15.50
2018-10-09T12:35:47.633Z,15.60
2018-10-09T12:38:16.196Z,15.53
2018-10-09T12:40:44.711Z,17.70
2018-10-09T12:43:13.128Z,18.07
2018-10-09T12:45:41.587Z,18.20
2018-10-09T12:48:10.006Z,15.70
2018-10-09T12:50:38.441Z,18.70
2018-10-09T12:53:07.166Z,16.50
2018-10-09T12:55:35.539Z,17.10
2018-10-09T12:58:04.064Z,14.23
2018-10-09T13:00:32.477Z,16.20
2018-10-09T13:03:00.927Z,14.17
2018-10-09T13:05:29.449Z,17.63
2018-10-09T13:07:57.951Z,16.13
2018-10-09T13:10:26.387Z,16.17
2018-10-09T13:12:54.842Z,15.13
2018-10-09T13:15:23.312Z,17.57
2018-10-09T13:17:51.689Z,18.17
2018-10-09T13:20:20.117Z,17.20
2018-10-09T13:22:48.649Z,16.73
2018-10-09T13:25:17.071Z,15.80
2018-10-09T13:27:45.414Z,16.87
2018-10-09T13:30:13.903Z,17.90
2018-10-09T13:32:42.693Z,17.33
2018-10-09T13:35:11.237Z,17.03
2018-10-09T13:37:39.737Z,16.33
2018-10-09T13:40:08.199Z,15.40
2018-10-09T13:42:36.596Z,14.50
2018-10-09T13:45:05.597Z,15.90
2018-10-09T13:47:34.165Z,17.37
2018-10-09T13:50:02.565Z,16.67
2018-10-09T13:52:30.969Z,15.70
2018-10-09T13:54:59.403Z,15.23
2018-10-09T13:57:27.876Z,16.37
2018-10-09T13:59:56.263Z,16.27
2018-10-09T14:02:24.804Z,15.43
2018-10-09T14:04:53.308Z,16.70
2018-10-09T14:07:21.822Z,16.53
2018-10-09T14:09:50.448Z,16.73
2018-10-09T14:12:18.854Z,23.90
2018-10-09T14:14:47.381Z,16.10
2018-10-09T14:17:15.799Z,15.10
2018-10-09T14:19:44.223Z,15.50
2018-10-09T14:22:12.778Z,14.30
2018-10-09T14:24:41.247Z,16.47
2018-10-09T14:27:09.756Z,14.90
2018-10-09T14:29:38.220Z,13.83
2018-10-09T14:32:06.920Z,12.43
2018-10-09T14:34:35.373Z,13.50
2018-10-09T14:37:03.857Z,14.37
2018-10-09T14:39:32.344Z,15.37
2018-10-09T14:42:01.073Z,14.10
2018-10-09T14:44:29.611Z,14.10
2018-10-09T14:46:58.035Z,12.30
2018-10-09T14:49:26.594Z,14.60
2018-10-09T14:51:55.045Z,14.53
2018-10-09T14:54:23.571Z,14.63
2018-10-09T14:56:52.095Z,14.97
2018-10-09T14:59:20.739Z,12.37
2018-10-09T15:01:49.182Z,12.53
2018-10-09T15:04:17.605Z,13.07
2018-10-09T15:06:46.108Z,14.50
2018-10-09T15:09:14.819Z,13.50
2018-10-09T15:11:43.864Z,12.70
2018-10-09T15:14:12.272Z,11.77
2018-10-09T15:16:40.889Z,13.87
2018-10-09T15:19:09.621Z,13.50
2018-10-09T15:21:38.281Z,10.63
2018-10-09T15:24:06.790Z,10.53
2018-10-09T15:26:35.215Z,11.23
2018-10-09T15:29:03.723Z,14.37
2018-10-09T15:31:32.146Z,10.80
2018-10-09T15:34:00.702Z,12.60
2018-10-09T15:36:29.174Z,11.63
2018-10-09T15:38:57.786Z,11.70
2018-10-09T15:41:26.322Z,11.30
2018-10-09T15:43:54.818Z,13.07
2018-10-09T15:46:23.325Z,12.40
2018-10-09T15:48:51.884Z,12.60
2018-10-09T15:51:20.302Z,12.77
2018-10-09T15:53:48.726Z,11.83
2018-10-09T15:56:17.153Z,12.10
2018-10-09T15:58:45.547Z,11.37
2018-10-09T16:01:14.654Z,12.40
2018-10-09T16:03:43.099Z,12.63
2018-10-09T16:06:11.709Z,12.33
2018-10-09T16:08:40.118Z,11.70
2018-10-09T16:11:08.599Z,13.20
2018-10-09T16:13:36.992Z,13.60
2018-10-09T16:16:05.517Z,12.90
2018-10-09T16:18:34.126Z,13.27
2018-10-09T16:21:02.682Z,13.03
2018-10-09T16:23:31.639Z,13.40
2018-10-09T16:26:00.098Z,13.37
2018-10-09T16:28:29.076Z,12.83
2018-10-09T16:30:57.493Z,13.87
2018-10-09T16:33:25.974Z,14.87
2018-10-09T16:35:54.437Z,14.80
2018-10-09T16:38:23.322Z,15.20
2018-10-09T16:40:51.766Z,14.90
2018-10-09T16:43:20.315Z,18.10
2018-10-09T16:45:48.936Z,15.67
2018-10-09T16:48:17.362Z,15.70
2018-10-09T16:50:45.807Z,15.60
2018-10-09T16:53:14.734Z,18.07
2018-10-09T16:55:43.154Z,18.43
2018-10-09T16:58:11.745Z,20.30
2018-10-09T17:00:40.098Z,20.00
2018-10-09T17:03:08.543Z,20.90
2018-10-09T17:05:37.216Z,20.33
2018-10-09T17:08:05.691Z,20.13
2018-10-09T17:10:34.119Z,19.50
2018-10-09T17:13:02.602Z,22.70
2018-10-09T17:15:31.083Z,19.60
2018-10-09T17:17:59.803Z,21.67
2018-10-09T17:20:28.242Z,20.20
2018-10-09T17:22:56.887Z,21.17
2018-10-09T17:25:25.476Z,20.70
2018-10-09T17:27:53.961Z,22.40
2018-10-09T17:30:22.446Z,23.37
2018-10-09T17:32:50.863Z,21.27
2018-10-09T17:35:19.364Z,24.17
2018-10-09T17:37:47.937Z,22.20
2018-10-09T17:40:16.434Z,23.53
2018-10-09T17:42:45.573Z,24.37
2018-10-09T17:45:14.151Z,30.80
2018-10-09T17:47:42.663Z,52.97
2018-10-09T17:50:11.150Z,41.13
2018-10-09T17:52:39.634Z,33.97
2018-10-09T17:55:08.238Z,30.03
2018-10-09T17:57:38.052Z,29.80
2018-10-09T18:00:08.071Z,30.80
2018-10-09T18:02:36.620Z,28.10
2018-10-09T18:05:05.253Z,28.83
2018-10-09T18:07:33.719Z,29.77
2018-10-09T18:10:02.154Z,29.97
2018-10-09T18:12:30.599Z,27.80
2018-10-09T18:14:59.114Z,29.80
2018-10-09T18:17:27.987Z,30.47
2018-10-09T18:19:56.679Z,30.10
2018-10-09T18:22:25.161Z,31.50
2018-10-09T18:24:53.816Z,36.30
2018-10-09T18:27:22.507Z,31.53
2018-10-09T18:32:44.769Z,27.90
2018-10-09T18:35:13.036Z,29.50
2018-10-09T18:37:41.675Z,29.33
2018-10-09T18:40:10.106Z,29.97
2018-10-09T18:42:38.814Z,32.27
2018-10-09T18:45:07.518Z,28.83
2018-10-09T18:47:43.247Z,30.60
2018-10-09T18:50:12.135Z,30.40
2018-10-09T18:52:41.341Z,33.17
2018-10-09T18:55:12.159Z,35.73
2018-10-09T18:57:40.632Z,35.00
2018-10-09T19:00:09.961Z,33.63
2018-10-09T19:02:39.258Z,33.90
2018-10-09T19:05:08.405Z,34.20
2018-10-09T19:07:37.120Z,39.17
2018-10-09T19:10:05.887Z,34.77
2018-10-09T19:12:34.478Z,35.30
2018-10-09T19:15:03.045Z,34.33
2018-10-09T19:17:31.438Z,35.70
2018-10-09T19:20:00.035Z,36.13
2018-10-09T19:22:28.616Z,38.67
2018-10-09T19:24:57.403Z,38.57
2018-10-09T19:27:25.893Z,38.03
2018-10-09T19:29:54.512Z,41.40
2018-10-09T19:32:23.148Z,50.73
2018-10-09T19:34:51.685Z,36.60
2018-10-09T19:37:20.277Z,38.80
2018-10-09T19:39:49.020Z,39.77
2018-10-09T19:42:17.355Z,46.30
2018-10-09T19:44:45.961Z,38.90
2018-10-09T19:47:14.481Z,40.20
2018-10-09T19:49:42.859Z,39.97
2018-10-09T19:52:11.289Z,37.07
2018-10-09T19:54:39.775Z,39.77
2018-10-09T19:57:08.282Z,42.40
2018-10-09T19:59:36.772Z,39.30
2018-10-09T20:02:05.289Z,36.70
2018-10-09T20:04:33.898Z,38.00
2018-10-09T20:07:02.462Z,38.57
2018-10-09T20:09:30.885Z,38.60
2018-10-09T20:11:59.336Z,44.47
2018-10-09T20:14:28.067Z,42.37
2018-10-09T20:16:56.511Z,44.27
2018-10-09T20:19:24.905Z,39.77
2018-10-09T20:21:53.371Z,37.70
2018-10-09T20:24:21.813Z,37.80
2018-10-09T20:26:50.415Z,39.83
2018-10-09T20:29:18.904Z,42.90
2018-10-09T20:31:47.327Z,61.90
2018-10-09T20:34:15.865Z,48.53
2018-10-09T20:36:44.274Z,42.23
2018-10-09T20:39:12.940Z,46.47
2018-10-09T20:41:41.528Z,54.87
2018-10-09T20:44:09.968Z,155.00
2018-10-09T20:46:38.401Z,91.23
2018-10-09T20:49:06.771Z,59.83
2018-10-09T20:51:35.336Z,103.43
2018-10-09T20:54:04.020Z,75.10
2018-10-09T20:56:32.430Z,89.03
2018-10-09T20:59:00.808Z,78.93
2018-10-09T21:01:29.280Z,108.53
2018-10-09T21:03:57.678Z,111.40
2018-10-09T21:06:26.302Z,67.00
2018-10-09T21:08:54.682Z,83.67
2018-10-09T21:11:23.084Z,76.13
2018-10-09T21:13:51.619Z,42.97
2018-10-09T21:16:19.995Z,49.37
2018-10-09T21:18:48.504Z,48.47
2018-10-09T21:21:16.898Z,45.93
2018-10-09T21:23:45.296Z,40.33
2018-10-09T21:26:13.736Z,48.43
2018-10-09T21:28:42.183Z,40.57
2018-10-09T21:31:10.703Z,38.13
2018-10-09T21:33:39.121Z,41.90
2018-10-09T21:36:07.878Z,39.13
2018-10-09T21:38:36.582Z,38.43
2018-10-09T21:41:05.036Z,39.47
2018-10-09T21:43:33.623Z,37.40
2018-10-09T21:46:02.117Z,39.33
2018-10-09T21:48:30.622Z,40.27
2018-10-09T21:50:59.231Z,39.40
2018-10-09T21:53:27.736Z,36.37
2018-10-09T21:55:56.156Z,40.00
2018-10-09T21:58:24.546Z,37.13
2018-10-09T22:00:58.199Z,39.63
2018-10-09T22:03:26.617Z,40.00
2018-10-09T22:05:55.049Z,40.13
2018-10-09T22:08:23.433Z,40.57
2018-10-09T22:10:52.014Z,40.23
2018-10-09T22:13:20.466Z,39.53
2018-10-09T22:15:48.914Z,39.30
2018-10-09T22:18:17.303Z,41.30
2018-10-09T22:20:45.681Z,42.30
2018-10-09T22:23:14.233Z,40.00
2018-10-09T22:25:42.869Z,40.17
2018-10-09T22:28:11.407Z,41.00
2018-10-09T22:30:39.850Z,40.53
